createdAt,value
2018-05-07T00:00:30.655Z,53.60
2018-05-07T00:03:01.495Z,53.90
2018-05-07T00:05:32.284Z,54.20
2018-05-07T00:08:02.730Z,54.20
2018-05-07T00:10:57.220Z,54.80
2018-05-07T00:13:27.480Z,54.70
2018-05-07T00:15:58.442Z,55.40
2018-05-07T00:18:32.262Z,55.40
2018-05-07T00:21:02.478Z,55.70
2018-05-07T00:23:32.202Z,55.80
2018-05-07T00:26:05.878Z,56.50
2018-05-07T00:28:45.801Z,56.20
2018-05-07T00:31:18.621Z,56.20
2018-05-07T00:33:48.533Z,55.90
2018-05-07T00:36:18.613Z,55.60
2018-05-07T00:38:48.199Z,56.40
2018-05-07T00:41:18.576Z,56.10
2018-05-07T00:43:48.974Z,56.10
2018-05-07T00:46:28.312Z,56.00
2018-05-07T00:49:01.167Z,55.70
2018-05-07T00:51:41.435Z,55.30
2018-05-07T00:54:11.623Z,55.00
2018-05-07T00:56:42.205Z,55.10
2018-05-07T00:59:11.789Z,55.20
2018-05-07T01:01:50.029Z,55.00
2018-05-07T01:04:19.767Z,55.50
2018-05-07T01:06:53.021Z,55.30
2018-05-07T01:09:22.615Z,55.40
2018-05-07T01:11:53.118Z,55.50
2018-05-07T01:14:24.246Z,54.80
2018-05-07T01:16:53.974Z,54.80
2018-05-07T01:19:23.640Z,55.10
2018-05-07T01:21:57.737Z,55.70
2018-05-07T01:24:27.736Z,56.40
2018-05-07T01:26:58.559Z,56.70
2018-05-07T01:29:28.702Z,56.80
2018-05-07T01:31:58.395Z,56.00
2018-05-07T01:34:28.524Z,56.30
2018-05-07T01:36:58.121Z,56.90
2018-05-07T01:39:27.859Z,57.00
2018-05-07T01:41:58.170Z,57.50
2018-05-07T01:44:27.875Z,57.50
2018-05-07T01:46:57.673Z,58.10
2018-05-07T01:49:28.688Z,58.40
2018-05-07T01:51:59.040Z,57.90
2018-05-07T01:54:28.594Z,57.90
2018-05-07T01:56:58.690Z,58.30
2018-05-07T02:43:11.049Z,58.40
2018-05-07T02:45:41.342Z,62.50
2018-05-07T02:48:11.153Z,62.40
2018-05-07T02:50:41.430Z,62.20
2018-05-07T02:53:11.016Z,62.60
2018-05-07T02:55:41.197Z,63.00
2018-05-07T02:58:11.562Z,63.70
2018-05-07T03:00:41.187Z,63.50
2018-05-07T03:03:10.862Z,63.70
2018-05-07T03:05:41.611Z,62.80
2018-05-07T03:08:11.271Z,62.90
2018-05-07T03:10:41.862Z,63.20
2018-05-07T03:13:12.252Z,63.20
2018-05-07T03:15:42.724Z,64.00
2018-05-07T03:18:12.456Z,63.90
2018-05-07T03:20:42.446Z,64.00
2018-05-07T03:23:12.013Z,64.20
2018-05-07T03:25:42.430Z,63.70
2018-05-07T03:28:13.110Z,64.10
2018-05-07T03:30:42.775Z,64.00
2018-05-07T03:33:12.361Z,64.10
2018-05-07T03:35:43.975Z,64.40
2018-05-07T03:38:13.683Z,64.40
2018-05-07T03:40:43.400Z,65.20
2018-05-07T03:43:13.652Z,65.10
2018-05-07T03:45:43.358Z,65.20
2018-05-07T03:48:13.786Z,65.30
2018-05-07T03:50:47.964Z,65.10
2018-05-07T03:53:17.714Z,65.10
2018-05-07T03:55:47.314Z,65.30
2018-05-07T03:58:17.149Z,65.20
2018-05-07T04:00:50.655Z,65.70
2018-05-07T04:03:21.685Z,65.70
2018-05-07T04:05:52.928Z,65.60
2018-05-07T04:08:22.896Z,66.20
2018-05-07T04:10:58.047Z,65.90
2018-05-07T04:13:28.644Z,65.90
2018-05-07T04:16:01.360Z,65.70
2018-05-07T04:19:44.983Z,65.60
2018-05-07T04:24:26.025Z,66.60
2018-05-07T04:26:55.661Z,66.60
2018-05-07T04:29:25.547Z,66.00
2018-05-07T04:31:55.753Z,66.50
2018-05-07T04:34:25.661Z,66.20
2018-05-07T04:36:55.323Z,66.70
2018-05-07T04:39:25.309Z,66.30
2018-05-07T04:41:54.816Z,66.70
2018-05-07T04:44:25.068Z,66.70
2018-05-07T04:46:54.872Z,66.60
2018-05-07T04:49:25.071Z,66.70
2018-05-07T04:51:54.663Z,66.80
2018-05-07T04:54:25.420Z,66.80
2018-05-07T04:56:55.995Z,66.60
2018-05-07T04:59:25.575Z,66.60
2018-05-07T05:01:55.498Z,66.90
2018-05-07T05:04:24.911Z,66.90
2018-05-07T05:06:54.436Z,66.80
2018-05-07T05:09:24.196Z,66.90
2018-05-07T05:11:54.506Z,66.60
2018-05-07T05:14:24.806Z,67.40
2018-05-07T05:16:54.771Z,67.50
2018-05-07T05:19:24.402Z,67.00
2018-05-07T05:21:54.031Z,66.50
2018-05-07T05:24:23.904Z,66.10
2018-05-07T05:26:53.622Z,66.50
2018-05-07T05:29:23.226Z,66.60
2018-05-07T05:31:53.055Z,66.60
2018-05-07T05:34:22.676Z,67.20
2018-05-07T05:36:52.623Z,66.70
2018-05-07T05:39:22.550Z,67.30
2018-05-07T05:41:52.989Z,66.20
2018-05-07T05:44:22.763Z,66.40
2018-05-07T05:46:52.538Z,66.00
2018-05-07T05:49:22.017Z,66.80
2018-05-07T05:51:51.587Z,65.50
2018-05-07T05:54:21.459Z,64.90
2018-05-07T05:56:50.958Z,64.30
2018-05-07T05:59:20.999Z,64.00
2018-05-07T06:01:50.931Z,63.10
2018-05-07T06:04:20.650Z,63.80
2018-05-07T06:06:52.016Z,61.30
2018-05-07T06:09:21.867Z,61.30
2018-05-07T06:11:51.511Z,62.00
2018-05-07T06:14:21.049Z,61.50
2018-05-07T06:16:51.993Z,61.30
2018-05-07T06:19:22.979Z,61.90
2018-05-07T06:21:52.639Z,62.60
2018-05-07T06:24:31.632Z,60.70
2018-05-07T06:27:14.913Z,60.80
2018-05-07T06:29:45.692Z,58.90
2018-05-07T06:32:15.682Z,59.30
2018-05-07T06:34:45.292Z,58.50
2018-05-07T06:37:16.317Z,58.80
2018-05-07T06:39:47.613Z,57.20
2018-05-07T06:42:18.228Z,58.00
2018-05-07T06:44:48.622Z,57.90
2018-05-07T06:47:18.740Z,57.10
2018-05-07T06:49:52.642Z,57.40
2018-05-07T06:52:22.873Z,56.70
2018-05-07T06:54:54.037Z,54.90
2018-05-07T06:57:24.317Z,54.70
2018-05-07T06:59:57.120Z,55.40
2018-05-07T07:02:28.094Z,55.20
2018-05-07T07:04:58.067Z,55.00
2018-05-07T07:10:05.616Z,53.70
2018-05-07T07:12:36.000Z,53.60
2018-05-07T07:15:05.772Z,53.90
2018-05-07T07:20:16.318Z,53.70
2018-05-07T07:22:46.203Z,53.90
2018-05-07T07:25:16.316Z,53.00
2018-05-07T07:27:46.581Z,53.30
2018-05-07T07:30:16.265Z,55.00
2018-05-07T07:32:46.651Z,53.40
2018-05-07T07:35:18.014Z,53.10
2018-05-07T07:37:47.727Z,53.10
2018-05-07T07:40:17.453Z,53.70
2018-05-07T07:42:47.191Z,53.00
2018-05-07T07:45:20.246Z,53.40
2018-05-07T07:47:49.818Z,53.80
2018-05-07T07:50:20.578Z,53.10
2018-05-07T07:52:51.432Z,53.60
2018-05-07T07:55:22.426Z,53.60
2018-05-07T07:57:52.896Z,50.60
2018-05-07T08:00:29.609Z,50.60
2018-05-07T08:03:01.017Z,51.00
2018-05-07T08:05:37.802Z,52.10
2018-05-07T08:08:08.647Z,52.10
2018-05-07T08:10:43.636Z,50.30
2018-05-07T08:13:13.241Z,50.30
2018-05-07T08:15:44.298Z,49.30
2018-05-07T08:18:14.172Z,49.30
2018-05-07T08:20:44.903Z,47.70
2018-05-07T08:23:16.006Z,48.00
2018-05-07T08:25:45.863Z,48.00
2018-05-07T08:28:18.620Z,47.70
2018-05-07T08:30:50.028Z,47.70
2018-05-07T08:33:19.671Z,45.80
2018-05-07T08:35:54.698Z,46.80
2018-05-07T08:38:27.138Z,47.10
2018-05-07T08:40:59.215Z,46.60
2018-05-07T08:43:28.826Z,48.00
2018-05-07T08:45:58.627Z,46.40
2018-05-07T08:51:13.041Z,44.30
2018-05-07T08:56:35.773Z,44.80
2018-05-07T08:59:05.821Z,43.30
2018-05-07T09:01:36.150Z,43.40
2018-05-07T09:04:06.143Z,41.90
2018-05-07T09:06:35.785Z,41.80
2018-05-07T09:09:11.442Z,40.40
2018-05-07T09:14:15.577Z,40.40
2018-05-07T09:16:48.960Z,40.60
2018-05-07T09:19:19.272Z,40.60
2018-05-07T09:21:53.468Z,40.20
2018-05-07T09:24:23.398Z,38.80
2018-05-07T09:26:53.171Z,38.20
2018-05-07T09:29:28.850Z,39.10
2018-05-07T09:32:07.379Z,39.10
2018-05-07T09:34:41.877Z,39.00
2018-05-07T09:37:12.302Z,37.50
2018-05-07T09:39:42.265Z,38.30
2018-05-07T09:42:12.464Z,37.90
2018-05-07T09:44:42.782Z,38.20
2018-05-07T09:47:13.218Z,37.60
2018-05-07T09:49:43.070Z,38.80
2018-05-07T09:52:12.920Z,38.00
2018-05-07T09:54:45.566Z,37.40
2018-05-07T09:57:28.631Z,36.90
2018-05-07T10:00:06.232Z,37.80
2018-05-07T10:02:39.795Z,37.70
2018-05-07T10:05:10.557Z,37.50
2018-05-07T10:07:40.422Z,37.50
2018-05-07T10:12:44.794Z,38.20
2018-05-07T10:15:14.832Z,38.40
2018-05-07T10:17:44.814Z,37.60
2018-05-07T10:20:14.321Z,39.10
2018-05-07T10:22:43.925Z,37.60
2018-05-07T10:25:13.898Z,38.30
2018-05-07T10:27:43.540Z,37.80
2018-05-07T10:30:13.135Z,36.20
2018-05-07T10:32:43.725Z,37.20
2018-05-07T10:35:13.240Z,37.10
2018-05-07T10:37:42.814Z,36.70
2018-05-07T10:40:12.581Z,35.60
2018-05-07T10:42:43.100Z,37.10
2018-05-07T10:45:12.770Z,37.00
2018-05-07T10:47:42.456Z,36.60
2018-05-07T10:50:29.397Z,35.60
2018-05-07T10:53:00.121Z,35.40
2018-05-07T10:55:29.897Z,36.00
2018-05-07T10:57:59.694Z,35.20
2018-05-07T11:00:32.116Z,34.90
2018-05-07T11:03:02.608Z,34.60
2018-05-07T11:05:32.912Z,33.60
2018-05-07T11:08:07.759Z,34.20
2018-05-07T11:10:37.952Z,34.20
2018-05-07T11:13:09.177Z,34.10
2018-05-07T11:15:39.000Z,35.40
2018-05-07T11:18:09.900Z,35.70
2018-05-07T11:20:46.527Z,35.00
2018-05-07T11:23:16.885Z,34.00
2018-05-07T11:25:47.403Z,33.10
2018-05-07T11:28:18.119Z,33.10
2018-05-07T11:30:49.620Z,35.40
2018-05-07T11:33:19.552Z,33.20
2018-05-07T11:35:50.179Z,33.80
2018-05-07T11:38:20.141Z,33.80
2018-05-07T11:43:26.055Z,31.40
2018-05-07T11:45:55.973Z,31.30
2018-05-07T11:49:23.902Z,32.90
2018-05-07T11:51:54.553Z,33.30
2018-05-07T11:54:26.091Z,33.30
2018-05-07T11:56:59.950Z,32.20
2018-05-07T11:59:30.668Z,33.60
2018-05-07T12:05:15.748Z,32.20
2018-05-07T12:07:46.307Z,31.50
2018-05-07T12:11:03.718Z,32.20
2018-05-07T12:13:34.438Z,31.80
2018-05-07T12:16:04.255Z,30.70
2018-05-07T12:18:33.969Z,31.20
2018-05-07T12:21:04.248Z,30.50
2018-05-07T12:23:34.087Z,30.10
2018-05-07T12:26:07.777Z,29.60
2018-05-07T12:28:51.132Z,29.00
2018-05-07T12:31:20.916Z,30.10
2018-05-07T12:33:52.797Z,30.20
2018-05-07T12:36:24.459Z,29.60
2018-05-07T12:38:55.065Z,29.60
2018-05-07T12:41:24.762Z,29.90
2018-05-07T12:43:54.601Z,30.00
2018-05-07T12:46:24.352Z,31.30
2018-05-07T12:48:53.987Z,30.10
2018-05-07T12:51:23.891Z,30.40
2018-05-07T12:53:56.322Z,29.70
2018-05-07T12:56:30.285Z,29.60
2018-05-07T12:59:03.347Z,29.40
2018-05-07T13:01:34.224Z,29.40
2018-05-07T13:04:08.837Z,30.80
2018-05-07T13:06:39.354Z,29.40
2018-05-07T13:09:16.519Z,29.30
2018-05-07T13:11:49.464Z,28.60
2018-05-07T13:14:25.638Z,29.60
2018-05-07T13:17:04.039Z,28.40
2018-05-07T13:19:39.046Z,28.40
2018-05-07T13:22:10.235Z,29.80
2018-05-07T13:24:39.947Z,27.90
2018-05-07T13:27:15.258Z,28.50
2018-05-07T13:29:45.043Z,28.50
2018-05-07T13:32:17.179Z,28.70
2018-05-07T13:34:50.568Z,29.20
2018-05-07T13:37:26.029Z,28.40
2018-05-07T13:40:05.482Z,28.70
2018-05-07T13:42:37.155Z,28.70
2018-05-07T15:02:22.021Z,25.30
2018-05-07T15:05:11.490Z,25.30
2018-05-07T15:07:52.873Z,26.90
2018-05-07T15:10:32.237Z,27.00
2018-05-07T15:13:04.108Z,26.40
2018-05-07T15:18:35.710Z,26.10
2018-05-07T15:25:09.037Z,26.10
2018-05-07T15:27:41.036Z,26.10
2018-05-07T15:33:11.741Z,27.60
2018-05-07T15:41:59.656Z,25.60
2018-05-07T15:44:49.208Z,25.60
2018-05-07T15:50:40.394Z,26.30
2018-05-07T16:04:44.641Z,27.40
2018-05-07T16:07:15.292Z,27.30
2018-05-07T16:09:51.399Z,28.40
2018-05-07T16:12:27.963Z,28.40
2018-05-07T16:15:07.460Z,27.30
2018-05-07T16:17:47.828Z,27.70
2018-05-07T16:20:44.314Z,27.60
2018-05-07T16:23:23.850Z,27.70
2018-05-07T16:26:14.603Z,27.80
2018-05-07T16:29:01.998Z,29.20
2018-05-07T16:31:45.202Z,29.30
2018-05-07T20:29:40.195Z,49.20
2018-05-07T20:32:24.449Z,50.10
2018-05-07T20:35:29.761Z,50.70
2018-05-07T20:38:09.280Z,51.10
2018-05-07T22:39:53.518Z,46.40
2018-05-07T23:12:36.084Z,48.00
2018-05-07T23:15:05.742Z,48.00
2018-05-07T23:17:35.881Z,48.00
2018-05-07T23:20:06.445Z,49.10
2018-05-07T23:22:36.803Z,48.20
2018-05-07T23:25:07.015Z,48.40
2018-05-07T23:27:37.691Z,48.80
2018-05-07T23:30:07.532Z,49.70
2018-05-07T23:32:43.284Z,50.60
2018-05-07T23:35:14.171Z,51.30
2018-05-07T23:37:43.705Z,51.20
2018-05-07T23:40:14.004Z,51.40
2018-05-07T23:42:43.653Z,51.70
2018-05-07T23:45:14.044Z,52.90
2018-05-07T23:47:43.997Z,53.00
2018-05-07T23:50:14.701Z,52.60
2018-05-07T23:52:44.554Z,52.80
2018-05-07T23:55:15.319Z,52.80
2018-05-07T23:57:45.069Z,52.80
